Time;durP1;ratioP1;P1;durP2;ratioP2;P2;SDS_P1;SDS_P2;PMS_P1;PMS_P2;Temp;Humidity;BMP_temperature;BMP_pressure;BME280_temperature;BME280_humidity;BME280_pressure;Samples;Min_cycle;Max_cycle;Signal;HPM_P1;HPM_P2
2023/11/30 00:02:20;;;;;;;5.95;3.47;;;15.30;68.00;;;;;;4184527;28;20056;-50
2023/11/30 00:05:02;;;;;;;7.75;3.83;;;15.40;68.00;;;;;;4189773;28;20565;-50
2023/11/30 00:07:43;;;;;;;6.90;3.42;;;15.40;67.80;;;;;;4186668;28;20133;-46
2023/11/30 00:10:24;;;;;;;6.97;3.53;;;15.40;67.40;;;;;;4186702;28;20174;-46
2023/11/30 00:13:05;;;;;;;8.25;3.30;;;15.40;67.40;;;;;;4189376;28;20059;-46
2023/11/30 00:15:47;;;;;;;6.95;3.47;;;15.40;67.40;;;;;;4189823;28;20407;-46
2023/11/30 00:18:30;;;;;;;3.78;3.45;;;15.30;67.50;;;;;;4179832;28;20502;-46
2023/11/30 00:21:11;;;;;;;3.88;3.38;;;15.20;67.70;;;;;;4189529;28;20141;-45
2023/11/30 00:23:52;;;;;;;5.28;3.85;;;15.30;68.00;;;;;;4189225;28;20055;-46
2023/11/30 00:26:33;;;;;;;7.03;2.88;;;15.20;68.10;;;;;;4189386;28;20564;-49
2023/11/30 00:29:14;;;;;;;;;;;15.20;68.10;;;;;;4188437;28;20117;-46
2023/11/30 00:31:55;;;;;;;5.45;2.95;;;15.20;68.40;;;;;;4189146;28;19943;-48
2023/11/30 00:34:38;;;;;;;10.20;3.78;;;15.20;68.70;;;;;;4172354;28;20060;-46
2023/11/30 00:37:18;;;;;;;4.35;3.50;;;15.20;68.60;;;;;;4174211;28;20048;-47
2023/11/30 00:40:00;;;;;;;4.00;3.58;;;15.10;68.30;;;;;;4189072;28;20170;-44
2023/11/30 00:42:40;;;;;;;5.90;3.70;;;15.10;68.40;;;;;;4173560;28;20063;-48
2023/11/30 00:45:21;;;;;;;4.40;3.28;;;15.20;68.40;;;;;;4175663;28;20134;-48
2023/11/30 00:48:03;;;;;;;4.32;3.17;;;15.20;68.30;;;;;;4187728;28;20117;-49
2023/11/30 00:50:45;;;;;;;6.05;3.70;;;15.40;68.10;;;;;;4183085;28;20051;-49
2023/11/30 00:53:26;;;;;;;4.38;3.72;;;15.50;67.50;;;;;;4171251;28;20060;-45
2023/11/30 00:56:08;;;;;;;4.30;3.13;;;15.50;67.10;;;;;;4173435;28;20060;-48
2023/11/30 00:58:49;;;;;;;4.63;3.75;;;15.60;66.90;;;;;;4173304;28;20290;-46
2023/11/30 01:01:30;;;;;;;8.63;3.58;;;15.60;66.80;;;;;;4187813;28;20055;-46
2023/11/30 01:04:11;;;;;;;;;;;15.70;66.70;;;;;;4181170;28;20051;-48
2023/11/30 01:06:53;;;;;;;3.75;3.40;;;15.70;66.80;;;;;;4183357;28;19931;-46
2023/11/30 01:09:34;;;;;;;5.80;3.45;;;15.70;66.50;;;;;;4188310;28;20051;-45
2023/11/30 01:12:15;;;;;;;4.65;3.42;;;15.70;66.20;;;;;;4188373;28;20083;-48
2023/11/30 01:14:57;;;;;;;7.85;3.60;;;15.60;67.10;;;;;;4188747;28;20052;-46
2023/11/30 01:17:37;;;;;;;15.98;3.20;;;15.60;66.30;;;;;;4188844;28;20060;-47
2023/11/30 01:20:18;;;;;;;5.05;3.53;;;15.60;66.60;;;;;;4187333;28;20122;-49
2023/11/30 01:23:01;;;;;;;9.82;3.65;;;15.50;66.50;;;;;;4188256;28;20097;-50
2023/11/30 01:25:42;;;;;;;3.03;2.83;;;15.50;66.60;;;;;;4179371;28;20122;-47
2023/11/30 01:28:23;;;;;;;;;;;15.50;66.60;;;;;;4188792;28;20192;-45
2023/11/30 01:31:04;;;;;;;12.23;3.40;;;15.50;66.90;;;;;;4188386;28;19943;-48
2023/11/30 01:33:45;;;;;;;7.88;3.55;;;15.60;67.20;;;;;;4161980;28;20063;-46
2023/11/30 01:36:26;;;;;;;14.10;3.30;;;15.60;66.90;;;;;;4187058;28;20536;-49
2023/11/30 01:39:09;;;;;;;13.68;3.22;;;15.70;66.50;;;;;;4175147;28;20051;-49
2023/11/30 01:41:50;;;;;;;13.35;3.17;;;15.70;66.40;;;;;;4171507;28;20060;-47
2023/11/30 01:44:31;;;;;;;9.00;3.35;;;15.80;66.40;;;;;;4172177;28;20079;-47
2023/11/30 01:47:12;;;;;;;10.10;2.53;;;15.80;65.90;;;;;;4171957;28;20528;-44
2023/11/30 01:49:53;;;;;;;8.40;3.05;;;15.80;65.90;;;;;;4169740;28;20377;-49
2023/11/30 01:52:34;;;;;;;7.90;3.40;;;15.90;65.90;;;;;;4170755;28;20511;-49
2023/11/30 01:55:17;;;;;;;8.43;2.85;;;15.90;65.60;;;;;;4166502;28;20047;-46
2023/11/30 01:57:59;;;;;;;10.98;3.42;;;15.90;65.30;;;;;;4181866;28;20187;-47
2023/11/30 02:00:39;;;;;;;5.63;3.03;;;16.00;65.20;;;;;;4188818;28;20112;-48
2023/11/30 02:03:20;;;;;;;13.65;3.08;;;16.00;65.20;;;;;;4170387;28;20620;-46
2023/11/30 02:06:05;;;;;;;11.32;3.08;;;16.00;65.20;;;;;;4180411;28;20064;-48
2023/11/30 02:08:46;;;;;;;5.30;3.05;;;15.90;65.20;;;;;;4187083;28;20046;-50
2023/11/30 02:11:28;;;;;;;11.45;3.30;;;15.90;65.20;;;;;;4187237;28;20055;-48
2023/11/30 02:14:09;;;;;;;4.75;2.83;;;15.90;65.30;;;;;;4186954;28;20055;-47
2023/11/30 02:16:50;;;;;;;8.35;2.88;;;15.80;65.20;;;;;;4186956;28;20515;-47
2023/11/30 02:19:31;;;;;;;7.53;2.83;;;15.70;65.60;;;;;;4183915;28;20056;-46
2023/11/30 02:22:13;;;;;;;4.03;2.57;;;15.60;66.10;;;;;;4170570;28;20059;-46
2023/11/30 02:24:54;;;;;;;5.65;2.47;;;15.70;66.30;;;;;;4186134;28;20424;-48
2023/11/30 02:27:35;;;;;;;5.22;3.03;;;15.70;66.10;;;;;;4186501;28;20063;-45
2023/11/30 02:30:16;;;;;;;4.85;2.78;;;15.80;65.90;;;;;;4174153;28;20059;-50
2023/11/30 02:32:56;;;;;;;6.15;3.28;;;15.90;65.80;;;;;;4171194;28;20766;-47
2023/11/30 02:35:38;;;;;;;5.50;2.60;;;16.00;65.50;;;;;;4186840;28;20055;-46
2023/11/30 02:38:20;;;;;;;7.70;2.80;;;16.00;65.20;;;;;;4171687;28;20052;-48
2023/11/30 02:41:01;;;;;;;3.78;3.00;;;16.10;65.00;;;;;;4171079;28;20048;-46
2023/11/30 02:43:42;;;;;;;5.13;2.70;;;16.10;64.70;;;;;;4187878;28;20215;-47
2023/11/30 02:46:23;;;;;;;15.20;2.53;;;16.00;64.70;;;;;;4184683;28;20498;-49
2023/11/30 02:49:04;;;;;;;14.68;2.88;;;16.00;64.90;;;;;;4186329;28;20118;-45
2023/11/30 02:51:45;;;;;;;10.45;2.55;;;15.90;65.00;;;;;;4186615;28;20055;-45
2023/11/30 02:54:27;;;;;;;16.67;2.55;;;15.90;65.30;;;;;;4187541;28;20060;-49
2023/11/30 02:57:08;;;;;;;5.53;2.85;;;15.90;65.40;;;;;;4187282;28;20075;-47
2023/11/30 02:59:49;;;;;;;2.85;2.60;;;15.80;65.20;;;;;;4187431;28;20174;-48
2023/11/30 03:02:30;;;;;;;8.15;2.40;;;15.80;65.20;;;;;;4185598;28;20074;-46
2023/11/30 03:05:11;;;;;;;12.75;2.65;;;15.80;65.50;;;;;;4173586;28;20064;-49
2023/11/30 03:07:52;;;;;;;11.00;2.78;;;15.80;65.50;;;;;;4188083;28;20086;-46
2023/11/30 03:10:35;;;;;;;6.18;2.78;;;15.90;65.40;;;;;;4172002;28;20060;-46
2023/11/30 03:13:15;;;;;;;4.75;2.40;;;15.90;65.30;;;;;;4171303;28;20142;-46
2023/11/30 03:15:56;;;;;;;4.72;2.55;;;15.90;65.30;;;;;;4179122;28;20047;-46
2023/11/30 03:18:40;;;;;;;4.45;2.15;;;15.90;65.30;;;;;;4186698;28;20052;-45
2023/11/30 03:21:21;;;;;;;4.32;2.10;;;16.00;65.00;;;;;;4186572;28;20579;-47
2023/11/30 03:24:02;;;;;;;;;;;16.10;64.70;;;;;;4172687;28;20051;-46
2023/11/30 03:26:44;;;;;;;7.53;2.47;;;16.10;64.60;;;;;;4184070;28;19932;-45
2023/11/30 03:29:25;;;;;;;7.38;2.40;;;16.10;64.70;;;;;;4159899;28;20053;-45
2023/11/30 03:32:07;;;;;;;8.38;3.03;;;16.00;64.70;;;;;;4173991;28;20448;-48
2023/11/30 03:34:48;;;;;;;7.05;3.00;;;16.00;64.90;;;;;;4165256;28;20099;-50
2023/11/30 03:37:29;;;;;;;5.32;3.00;;;16.00;64.80;;;;;;4172524;28;20048;-45
2023/11/30 03:40:11;;;;;;;6.05;2.47;;;16.00;65.00;;;;;;4187200;28;20056;-45
2023/11/30 03:42:53;;;;;;;7.78;3.05;;;16.00;65.20;;;;;;4189126;28;20089;-48
2023/11/30 03:45:36;;;;;;;12.00;3.10;;;16.00;65.00;;;;;;4190213;28;20055;-47
2023/11/30 03:48:17;;;;;;;7.13;3.40;;;15.90;64.90;;;;;;4180356;28;20056;-45
2023/11/30 03:50:58;;;;;;;12.25;3.40;;;15.90;64.90;;;;;;4189878;28;20060;-45
2023/11/30 03:53:39;;;;;;;10.32;2.95;;;15.80;65.00;;;;;;4189575;28;20544;-49
2023/11/30 03:56:20;;;;;;;5.45;2.75;;;15.70;65.30;;;;;;4183233;28;20044;-47
2023/11/30 03:59:02;;;;;;;6.00;3.15;;;15.60;65.20;;;;;;4182850;28;20051;-46
2023/11/30 04:01:44;;;;;;;6.93;2.92;;;15.50;65.40;;;;;;4188092;28;20059;-46
2023/11/30 04:04:25;;;;;;;9.80;2.60;;;15.40;65.70;;;;;;4187968;28;20104;-45
2023/11/30 04:07:06;;;;;;;6.80;3.00;;;15.40;65.80;;;;;;4188350;28;20688;-47
2023/11/30 04:09:48;;;;;;;8.65;2.95;;;15.30;66.40;;;;;;4189894;28;20186;-45
2023/11/30 04:12:29;;;;;;;9.63;2.78;;;15.30;66.70;;;;;;4175929;28;20043;-49
2023/11/30 04:15:11;;;;;;;8.82;2.90;;;15.30;66.80;;;;;;4188606;28;20055;-51
2023/11/30 04:17:52;;;;;;;5.57;2.83;;;15.40;66.50;;;;;;4189345;28;20377;-51
2023/11/30 04:20:34;;;;;;;6.03;2.97;;;15.50;66.30;;;;;;4188984;28;20113;-50
2023/11/30 04:23:15;;;;;;;4.72;3.00;;;15.60;66.00;;;;;;4179560;28;20059;-51
2023/11/30 04:25:56;;;;;;;4.15;2.78;;;15.70;65.70;;;;;;4188006;28;20055;-54
2023/11/30 04:28:37;;;;;;;5.97;3.10;;;15.70;65.40;;;;;;4174611;28;20451;-50
2023/11/30 04:31:20;;;;;;;4.25;2.60;;;15.80;65.10;;;;;;4172705;28;20291;-51
2023/11/30 04:34:01;;;;;;;8.00;2.45;;;15.90;65.00;;;;;;4170984;28;20118;-52
2023/11/30 04:36:42;;;;;;;5.38;3.10;;;15.90;64.90;;;;;;4184383;28;20098;-54
2023/11/30 04:39:23;;;;;;;7.60;2.78;;;16.00;64.80;;;;;;4188163;28;20408;-53
2023/11/30 04:42:06;;;;;;;2.97;2.72;;;16.00;64.40;;;;;;4172586;28;20162;-51
2023/11/30 04:44:47;;;;;;;4.80;2.40;;;16.10;64.20;;;;;;4186676;28;20051;-51
2023/11/30 04:47:29;;;;;;;4.80;2.40;;;16.10;64.30;;;;;;4183576;28;20093;-53
2023/11/30 04:50:10;;;;;;;9.52;2.60;;;16.10;64.20;;;;;;4184672;28;20329;-46
2023/11/30 04:52:52;;;;;;;2.85;2.17;;;16.20;63.90;;;;;;4187629;28;20149;-47
2023/11/30 04:55:42;;;;;;;4.30;2.45;;;16.20;63.70;;;;;;4188227;28;20060;-46
2023/11/30 04:58:23;;;;;;;2.95;2.60;;;16.10;63.70;;;;;;4187880;28;20075;-47
2023/11/30 05:01:05;;;;;;;7.43;2.70;;;16.10;63.70;;;;;;4184568;28;20055;-49
2023/11/30 05:03:47;;;;;;;2.78;2.35;;;16.10;63.90;;;;;;4184788;28;20098;-46
2023/11/30 05:06:28;;;;;;;5.18;2.40;;;15.90;63.80;;;;;;4172075;28;20130;-49
2023/11/30 05:09:09;;;;;;;6.43;2.63;;;15.80;64.20;;;;;;4180819;28;20056;-46
2023/11/30 05:11:50;;;;;;;4.15;2.85;;;15.70;64.60;;;;;;4184623;28;20186;-48
2023/11/30 05:14:31;;;;;;;3.15;2.75;;;15.60;65.00;;;;;;4188919;28;20056;-45
2023/11/30 05:17:12;;;;;;;5.38;3.22;;;15.60;65.40;;;;;;4188749;28;20105;-47
2023/11/30 05:19:54;;;;;;;4.57;2.97;;;15.60;65.50;;;;;;4186981;28;20158;-46
2023/11/30 05:22:35;;;;;;;3.38;2.20;;;15.60;65.50;;;;;;4188360;28;20548;-46
2023/11/30 05:25:16;;;;;;;6.03;2.80;;;15.70;65.40;;;;;;4188570;28;20052;-46
2023/11/30 05:27:58;;;;;;;3.20;2.90;;;15.80;66.00;;;;;;4176128;28;20194;-45
2023/11/30 05:30:39;;;;;;;5.80;2.67;;;15.90;64.90;;;;;;4174082;28;20059;-46
2023/11/30 05:33:20;;;;;;;2.92;2.50;;;15.90;64.60;;;;;;4198537;28;20097;-48
2023/11/30 05:36:03;;;;;;;3.90;2.90;;;16.00;64.40;;;;;;4169988;28;20055;-44
2023/11/30 05:38:43;;;;;;;2.53;2.42;;;16.00;64.20;;;;;;4185763;28;20314;-43
2023/11/30 05:41:24;;;;;;;2.30;2.20;;;16.00;64.00;;;;;;4172196;28;20056;-46
2023/11/30 05:44:05;;;;;;;5.07;2.85;;;16.00;63.80;;;;;;4183439;28;20230;-45
2023/11/30 05:46:46;;;;;;;2.65;2.38;;;16.10;63.80;;;;;;4180933;28;20055;-45
2023/11/30 05:49:27;;;;;;;2.20;2.10;;;16.10;63.70;;;;;;4178564;28;20404;-45
2023/11/30 05:52:09;;;;;;;2.60;2.50;;;16.10;63.70;;;;;;4186433;28;20384;-44
2023/11/30 05:54:50;;;;;;;3.40;2.90;;;16.10;63.40;;;;;;4186927;28;20113;-46
2023/11/30 05:57:31;;;;;;;3.05;2.85;;;16.10;63.10;;;;;;4186794;28;20063;-45
2023/11/30 06:00:13;;;;;;;2.20;2.10;;;16.10;63.20;;;;;;4185399;28;20056;-44
2023/11/30 06:02:54;;;;;;;2.90;2.70;;;16.10;63.50;;;;;;4173632;28;20469;-45
2023/11/30 06:05:35;;;;;;;2.95;2.28;;;16.10;63.70;;;;;;4187913;28;20459;-46
2023/11/30 06:08:17;;;;;;;2.78;2.13;;;16.00;63.50;;;;;;4187551;28;20051;-45
2023/11/30 06:10:58;;;;;;;2.30;2.15;;;16.10;63.60;;;;;;4187708;28;20052;-46
2023/11/30 06:13:39;;;;;;;2.40;2.28;;;16.00;63.40;;;;;;4187594;28;20060;-46
2023/11/30 06:16:20;;;;;;;5.95;2.40;;;16.00;63.40;;;;;;4187182;28;20047;-45
2023/11/30 06:19:02;;;;;;;5.07;2.70;;;15.90;63.30;;;;;;4170684;28;20059;-48
2023/11/30 06:21:43;;;;;;;2.30;2.20;;;15.90;63.60;;;;;;4175527;28;20131;-45
2023/11/30 06:24:26;;;;;;;3.13;2.22;;;15.90;63.90;;;;;;4175329;28;20060;-47
2023/11/30 06:27:07;;;;;;;3.20;1.83;;;15.90;64.70;;;;;;4170760;28;20052;-46
2023/11/30 06:29:48;;;;;;;;;;;15.90;63.90;;;;;;4187147;28;20056;-46
2023/11/30 06:32:29;;;;;;;3.13;2.20;;;16.00;63.70;;;;;;4177429;28;19928;-50
2023/11/30 06:35:10;;;;;;;1.42;1.42;;;16.10;63.70;;;;;;4186811;28;20101;-47
2023/11/30 06:37:51;;;;;;;2.55;2.25;;;16.10;63.60;;;;;;4186110;28;20734;-48
2023/11/30 06:40:34;;;;;;;3.35;2.00;;;16.10;63.60;;;;;;4181340;28;20063;-50
2023/11/30 06:43:14;;;;;;;1.90;1.80;;;16.10;63.40;;;;;;4171748;28;20087;-45
2023/11/30 06:45:55;;;;;;;5.18;2.80;;;16.10;63.50;;;;;;4187231;28;20182;-45
2023/11/30 06:48:36;;;;;;;2.88;2.67;;;16.10;63.70;;;;;;4186904;28;20059;-45
2023/11/30 06:51:18;;;;;;;2.80;2.60;;;16.10;63.60;;;;;;4187211;28;20060;-48
2023/11/30 06:53:59;;;;;;;3.83;2.50;;;16.00;60.30;;;;;;4187159;28;20146;-49
2023/11/30 06:56:41;;;;;;;2.90;2.70;;;16.00;59.40;;;;;;4169878;28;20109;-47
2023/11/30 06:59:23;;;;;;;1.95;1.85;;;15.90;59.40;;;;;;4186310;28;20047;-47
2023/11/30 07:02:04;;;;;;;4.15;2.10;;;15.70;59.30;;;;;;4185218;28;20075;-54
2023/11/30 07:04:45;;;;;;;3.40;1.73;;;15.60;59.60;;;;;;4188463;28;20411;-50
2023/11/30 07:07:26;;;;;;;1.58;1.58;;;15.50;59.90;;;;;;4203604;28;20105;-51
2023/11/30 07:10:12;;;;;;;2.90;1.80;;;15.40;59.90;;;;;;4158349;28;20499;-52
2023/11/30 07:12:54;;;;;;;3.08;1.50;;;15.40;60.00;;;;;;4163671;28;20396;-53
2023/11/30 07:15:35;;;;;;;2.08;1.92;;;15.30;60.10;;;;;;4180179;28;20522;-52
2023/11/30 07:18:16;;;;;;;1.90;1.80;;;15.30;59.90;;;;;;4170477;28;20064;-50
2023/11/30 07:20:58;;;;;;;2.70;1.85;;;15.30;60.70;;;;;;4170695;28;20109;-47
2023/11/30 07:23:39;;;;;;;4.10;1.60;;;15.40;59.70;;;;;;4169018;28;20056;-48
2023/11/30 07:26:20;;;;;;;1.88;1.77;;;15.40;59.90;;;;;;4170137;28;20059;-50
2023/11/30 07:29:04;;;;;;;5.05;2.13;;;15.50;59.20;;;;;;4169611;28;20187;-47
2023/11/30 07:31:45;;;;;;;6.53;1.95;;;15.60;58.70;;;;;;4170460;28;20060;-47
2023/11/30 07:34:26;;;;;;;4.65;2.53;;;15.70;58.60;;;;;;4169700;28;20183;-50
2023/11/30 07:37:07;;;;;;;6.68;2.13;;;15.80;58.90;;;;;;4167517;28;20480;-49
2023/11/30 07:39:49;;;;;;;3.15;2.05;;;15.80;58.90;;;;;;4169046;28;20430;-49
2023/11/30 07:42:30;;;;;;;4.78;1.70;;;15.90;59.50;;;;;;4169855;28;20515;-48
2023/11/30 07:45:16;;;;;;;2.20;1.80;;;15.90;59.00;;;;;;4163517;28;20056;-51
2023/11/30 07:47:58;;;;;;;6.32;1.90;;;16.00;58.00;;;;;;4155020;28;20504;-50
2023/11/30 07:50:40;;;;;;;3.78;2.05;;;16.00;58.70;;;;;;4154074;28;20496;-54
2023/11/30 07:53:23;;;;;;;3.35;2.78;;;16.10;58.60;;;;;;4169536;28;20128;-50
2023/11/30 07:56:04;;;;;;;2.95;2.72;;;16.10;59.10;;;;;;4170149;28;20044;-49
2023/11/30 07:58:45;;;;;;;7.18;3.20;;;16.20;58.30;;;;;;4153786;28;20408;-49
2023/11/30 08:01:27;;;;;;;6.60;2.97;;;16.30;57.90;;;;;;4154714;28;20053;-52
2023/11/30 08:04:09;;;;;;;5.30;2.20;;;16.30;57.90;;;;;;4169046;28;20060;-52
2023/11/30 08:06:50;;;;;;;;;;;16.30;57.80;;;;;;4161098;28;20384;-53
2023/11/30 08:09:31;;;;;;;2.45;2.25;;;16.20;57.90;;;;;;4166202;28;19932;-52
2023/11/30 08:12:12;;;;;;;3.08;1.60;;;16.20;57.90;;;;;;4179736;28;20055;-53
2023/11/30 08:14:53;;;;;;;1.80;1.70;;;16.20;57.70;;;;;;4170603;28;20124;-50
2023/11/30 08:17:36;;;;;;;1.95;1.67;;;16.20;58.10;;;;;;4183836;28;20047;-51
2023/11/30 08:20:17;;;;;;;2.55;2.00;;;16.30;57.80;;;;;;4205920;28;20059;-48
2023/11/30 08:22:58;;;;;;;2.00;1.85;;;16.30;57.30;;;;;;4205794;28;20051;-51
2023/11/30 08:25:39;;;;;;;2.38;2.10;;;16.30;56.90;;;;;;4200509;28;20129;-49
2023/11/30 08:28:20;;;;;;;1.95;1.85;;;16.30;56.20;;;;;;4175148;28;20055;-52
2023/11/30 08:31:04;;;;;;;2.10;2.00;;;16.20;56.00;;;;;;4157128;28;20196;-52
2023/11/30 08:33:48;;;;;;;2.50;1.60;;;16.10;55.90;;;;;;4155748;28;20052;-50
2023/11/30 08:36:29;;;;;;;1.80;1.70;;;16.00;56.10;;;;;;4170337;28;20047;-51
2023/11/30 08:39:10;;;;;;;2.75;1.45;;;16.00;55.20;;;;;;4155973;28;20061;-50
2023/11/30 08:41:54;;;;;;;1.42;1.42;;;15.90;54.70;;;;;;4171987;28;20056;-50
2023/11/30 08:44:35;;;;;;;2.92;1.30;;;15.90;55.30;;;;;;4170780;28;20122;-49
2023/11/30 08:47:16;;;;;;;2.13;1.65;;;15.80;55.00;;;;;;4202994;28;20059;-51
2023/11/30 08:49:59;;;;;;;2.80;1.35;;;15.80;55.00;;;;;;4202788;28;20545;-50
2023/11/30 08:52:40;;;;;;;2.65;1.60;;;15.80;55.10;;;;;;4202583;28;21111;-46
2023/11/30 08:55:21;;;;;;;3.33;1.40;;;15.90;55.00;;;;;;4201876;28;20055;-50
2023/11/30 08:58:03;;;;;;;1.60;1.48;;;15.80;54.90;;;;;;4202678;28;20193;-47
2023/11/30 09:00:44;;;;;;;2.88;1.80;;;15.80;55.10;;;;;;4202385;28;20116;-47
2023/11/30 09:03:26;;;;;;;3.13;2.00;;;15.80;54.80;;;;;;4201823;28;20414;-48
2023/11/30 09:06:11;;;;;;;3.25;2.17;;;15.80;54.60;;;;;;4202522;28;20266;-47
2023/11/30 09:08:53;;;;;;;1.92;1.65;;;15.80;54.30;;;;;;4202443;28;20054;-45
2023/11/30 09:11:34;;;;;;;7.72;1.90;;;15.70;54.30;;;;;;4201119;28;20047;-49
2023/11/30 09:14:15;;;;;;;2.65;1.88;;;15.60;55.20;;;;;;4203176;28;20105;-48
2023/11/30 09:16:56;;;;;;;4.22;2.20;;;15.60;54.80;;;;;;4200843;28;20059;-49
2023/11/30 09:19:37;;;;;;;2.25;1.80;;;15.50;55.20;;;;;;4190730;28;20479;-51
2023/11/30 09:22:20;;;;;;;2.13;2.03;;;15.40;55.60;;;;;;4189858;28;20058;-49
2023/11/30 09:25:01;;;;;;;4.97;2.15;;;15.40;55.90;;;;;;4187211;28;20082;-52
2023/11/30 09:27:42;;;;;;;2.97;1.80;;;15.30;56.20;;;;;;4199726;28;20189;-49
2023/11/30 09:30:23;;;;;;;5.78;1.90;;;15.30;56.70;;;;;;4202400;28;20514;-48
2023/11/30 09:33:06;;;;;;;4.15;2.22;;;15.20;56.80;;;;;;4202522;28;20067;-50
2023/11/30 09:35:47;;;;;;;2.13;1.95;;;15.20;56.30;;;;;;4201940;28;20047;-52
2023/11/30 09:38:30;;;;;;;3.00;2.38;;;15.10;56.30;;;;;;4200408;28;20064;-50
2023/11/30 09:41:13;;;;;;;5.18;2.53;;;15.10;56.80;;;;;;4202264;28;20059;-51
2023/11/30 09:43:54;;;;;;;3.03;2.40;;;15.00;57.40;;;;;;4201397;28;20128;-52
2023/11/30 09:46:37;;;;;;;3.38;2.47;;;15.00;59.00;;;;;;4185350;28;20047;-51
2023/11/30 09:49:19;;;;;;;3.50;3.15;;;15.10;59.20;;;;;;4200359;28;20051;-53
2023/11/30 09:52:00;;;;;;;3.28;2.97;;;15.20;59.20;;;;;;4197707;28;20059;-50
2023/11/30 09:54:42;;;;;;;3.38;2.90;;;15.30;59.30;;;;;;4196599;28;21013;-50
2023/11/30 09:57:23;;;;;;;2.70;2.50;;;15.40;59.20;;;;;;4200707;28;20051;-53
2023/11/30 10:00:06;;;;;;;4.43;2.80;;;15.50;59.20;;;;;;4201261;28;20124;-51
2023/11/30 10:02:54;;;;;;;3.67;3.03;;;15.50;58.60;;;;;;4201191;28;20178;-54
2023/11/30 10:05:35;;;;;;;3.80;2.90;;;15.60;58.30;;;;;;4201571;28;20181;-53
2023/11/30 10:08:18;;;;;;;3.03;2.80;;;15.60;58.20;;;;;;4200354;28;20047;-50
2023/11/30 10:11:01;;;;;;;4.05;3.60;;;15.60;57.70;;;;;;4183171;28;20556;-50
2023/11/30 10:13:42;;;;;;;4.65;3.47;;;15.60;57.40;;;;;;4186248;28;20174;-48
2023/11/30 10:16:23;;;;;;;3.47;3.25;;;15.70;57.30;;;;;;4212075;28;20044;-47
2023/11/30 10:19:05;;;;;;;3.53;3.22;;;15.70;57.40;;;;;;4196825;28;20091;-52
2023/11/30 10:21:48;;;;;;;4.30;3.90;;;15.70;57.30;;;;;;4196645;28;20514;-49
2023/11/30 10:24:29;;;;;;;3.47;3.28;;;15.60;57.10;;;;;;4199564;28;20067;-51
2023/11/30 10:27:14;;;;;;;5.78;3.63;;;15.60;57.50;;;;;;4200329;28;20391;-49
2023/11/30 10:30:00;;;;;;;4.40;3.75;;;15.60;57.80;;;;;;4200688;28;20161;-52
2023/11/30 10:32:42;;;;;;;6.75;4.45;;;15.60;58.20;;;;;;4195867;28;20051;-48
2023/11/30 10:35:25;;;;;;;3.42;3.13;;;15.60;58.30;;;;;;4200508;28;20140;-49
2023/11/30 10:38:08;;;;;;;3.92;3.50;;;15.60;58.50;;;;;;4200889;28;20093;-51
2023/11/30 10:40:51;;;;;;;5.35;3.50;;;15.60;58.90;;;;;;4201318;28;20882;-49
2023/11/30 10:43:37;;;;;;;6.38;3.50;;;15.50;59.20;;;;;;4184309;28;20052;-52
2023/11/30 10:46:19;;;;;;;8.18;3.85;;;15.50;59.70;;;;;;4183074;28;20090;-52
2023/11/30 10:49:01;;;;;;;4.10;3.20;;;15.50;60.00;;;;;;4195192;28;20059;-52
2023/11/30 10:51:42;;;;;;;5.88;3.65;;;15.50;60.30;;;;;;4190058;28;20085;-53
2023/11/30 10:54:35;;;;;;;5.55;3.50;;;15.50;60.30;;;;;;4196651;28;20509;-51
2023/11/30 10:57:17;;;;;;;4.53;3.67;;;15.40;59.60;;;;;;4198937;28;20071;-50
2023/11/30 11:00:00;;;;;;;7.13;4.03;;;15.40;59.50;;;;;;4198129;28;20513;-53
2023/11/30 11:02:44;;;;;;;4.03;3.70;;;15.40;60.30;;;;;;4199826;28;20051;-54
2023/11/30 11:05:34;;;;;;;3.60;3.30;;;15.40;60.70;;;;;;4159908;28;20058;-54
2023/11/30 11:08:22;;;;;;;4.18;3.83;;;15.50;60.30;;;;;;4130405;28;20106;-51
2023/11/30 11:11:09;;;;;;;4.05;3.38;;;15.50;60.10;;;;;;4174844;28;20099;-53
2023/11/30 11:13:50;;;;;;;4.40;3.60;;;15.50;60.80;;;;;;4200309;28;20140;-53
2023/11/30 11:16:37;;;;;;;6.50;3.60;;;15.50;60.30;;;;;;4200147;28;20055;-52
2023/11/30 11:19:18;;;;;;;3.95;3.58;;;15.40;60.50;;;;;;4182405;28;20056;-50
2023/11/30 11:21:59;;;;;;;4.87;4.00;;;15.40;60.90;;;;;;4199939;28;20062;-53
2023/11/30 11:24:40;;;;;;;4.90;3.70;;;15.40;60.20;;;;;;4198187;28;20448;-50
2023/11/30 11:27:28;;;;;;;3.88;3.58;;;15.40;60.70;;;;;;4201703;28;20087;-50
2023/11/30 11:30:10;;;;;;;4.45;3.90;;;15.30;60.40;;;;;;4200935;28;20197;-55
2023/11/30 11:32:55;;;;;;;;;;;15.30;60.80;;;;;;4185180;28;20199;-54
2023/11/30 11:35:36;;;;;;;5.03;3.80;;;15.20;61.40;;;;;;4200574;28;19934;-54
2023/11/30 11:38:18;;;;;;;4.07;3.67;;;15.20;62.00;;;;;;4175576;28;20056;-55
2023/11/30 11:40:59;;;;;;;8.57;4.40;;;15.10;61.80;;;;;;4198133;28;20059;-53
2023/11/30 11:43:40;;;;;;;4.53;4.10;;;15.00;62.00;;;;;;4200797;28;20403;-53
2023/11/30 11:46:21;;;;;;;5.38;4.13;;;14.90;62.90;;;;;;4200375;28;20063;-54
2023/11/30 11:49:04;;;;;;;5.45;3.70;;;14.90;62.80;;;;;;4204201;28;20046;-54
2023/11/30 11:51:46;;;;;;;4.07;3.65;;;14.90;63.40;;;;;;4203722;28;20525;-54
2023/11/30 11:54:27;;;;;;;6.82;4.75;;;14.80;62.30;;;;;;4171634;28;20051;-51
2023/11/30 11:57:08;;;;;;;6.68;4.38;;;14.80;63.50;;;;;;4200767;28;20406;-55
2023/11/30 11:59:53;;;;;;;5.43;4.03;;;14.80;63.50;;;;;;4202798;28;20058;-55
2023/11/30 12:02:35;;;;;;;7.13;4.60;;;14.80;62.80;;;;;;4203633;28;20059;-54
2023/11/30 12:05:20;;;;;;;5.70;4.35;;;14.70;62.80;;;;;;4204040;28;20543;-54
2023/11/30 12:08:02;;;;;;;4.57;4.18;;;14.60;63.30;;;;;;4202545;28;20197;-50
2023/11/30 12:10:44;;;;;;;4.78;4.32;;;14.60;64.10;;;;;;4194866;28;20051;-51
2023/11/30 12:13:26;;;;;;;5.20;4.70;;;14.70;64.50;;;;;;4201176;28;20178;-56
2023/11/30 12:16:08;;;;;;;4.30;3.90;;;14.80;64.80;;;;;;4200378;28;20411;-50
2023/11/30 12:18:49;;;;;;;5.68;4.53;;;14.80;64.60;;;;;;4204418;28;20466;-50
2023/11/30 12:21:34;;;;;;;4.55;4.15;;;14.90;66.20;;;;;;4192145;28;20218;-48
2023/11/30 12:24:15;;;;;;;3.95;3.65;;;15.00;65.90;;;;;;4159833;28;20068;-53
2023/11/30 12:26:56;;;;;;;6.75;4.75;;;15.10;66.10;;;;;;4174431;28;20059;-50
2023/11/30 12:29:37;;;;;;;5.80;4.95;;;15.10;66.40;;;;;;4175817;28;20056;-52
2023/11/30 12:32:18;;;;;;;6.63;5.00;;;15.10;66.70;;;;;;4169723;28;20051;-51
2023/11/30 12:34:59;;;;;;;5.13;4.45;;;15.10;67.00;;;;;;4172944;28;20109;-48
2023/11/30 12:37:42;;;;;;;5.05;4.15;;;15.00;67.30;;;;;;4185156;28;20071;-52
2023/11/30 12:40:23;;;;;;;6.10;5.30;;;15.00;68.90;;;;;;4188756;28;20044;-51
2023/11/30 12:43:04;;;;;;;5.65;4.45;;;15.00;69.50;;;;;;4181218;28;20506;-53
2023/11/30 12:45:45;;;;;;;6.57;5.00;;;15.10;69.30;;;;;;4172173;28;20106;-51
2023/11/30 12:48:25;;;;;;;7.13;4.97;;;15.20;69.30;;;;;;4175339;28;20060;-53
2023/11/30 12:51:07;;;;;;;6.22;5.63;;;15.30;69.10;;;;;;4188726;28;20138;-51
2023/11/30 12:53:51;;;;;;;6.05;5.47;;;15.40;68.70;;;;;;4188834;28;20052;-48
2023/11/30 12:56:32;;;;;;;8.02;5.47;;;15.50;68.60;;;;;;4179518;28;20056;-52
2023/11/30 12:59:13;;;;;;;6.15;5.53;;;15.60;68.20;;;;;;4189176;28;20102;-51
2023/11/30 13:01:54;;;;;;;6.13;5.47;;;15.60;68.30;;;;;;4171725;28;20071;-52
2023/11/30 13:04:36;;;;;;;5.22;4.72;;;15.70;68.30;;;;;;4188683;28;20067;-52
2023/11/30 13:07:18;;;;;;;7.60;5.22;;;15.70;68.20;;;;;;4188861;28;20509;-53
2023/11/30 13:10:01;;;;;;;7.57;5.50;;;15.70;68.20;;;;;;4177816;28;20047;-51
2023/11/30 13:12:42;;;;;;;7.13;5.60;;;15.80;68.10;;;;;;4172309;28;20052;-52
2023/11/30 13:15:23;;;;;;;7.00;5.82;;;15.80;69.00;;;;;;4186933;28;20395;-49
2023/11/30 13:18:04;;;;;;;7.70;5.68;;;15.80;68.30;;;;;;4173625;28;20048;-50
2023/11/30 13:20:45;;;;;;;5.28;4.82;;;15.70;68.30;;;;;;4176190;28;20058;-50
2023/11/30 13:23:27;;;;;;;5.90;5.05;;;15.70;68.80;;;;;;4188622;28;20829;-48
2023/11/30 13:26:09;;;;;;;5.30;4.78;;;15.60;69.00;;;;;;4187960;28;20063;-50
2023/11/30 13:28:50;;;;;;;6.03;5.43;;;15.50;69.10;;;;;;4188275;28;20055;-51
2023/11/30 13:31:32;;;;;;;6.63;5.05;;;15.50;69.50;;;;;;4187875;28;20070;-54
2023/11/30 13:34:13;;;;;;;5.68;5.07;;;15.50;70.00;;;;;;4185512;28;20537;-54
2023/11/30 13:36:54;;;;;;;6.72;5.28;;;15.40;70.20;;;;;;4187712;28;20125;-54
2023/11/30 13:39:35;;;;;;;6.00;5.28;;;15.30;70.50;;;;;;4172168;28;20191;-53
2023/11/30 13:42:17;;;;;;;6.22;5.35;;;15.30;72.00;;;;;;4165252;28;20543;-52
2023/11/30 13:45:01;;;;;;;6.65;4.80;;;15.30;72.50;;;;;;4167772;28;20182;-52
2023/11/30 13:47:47;;;;;;;6.32;5.40;;;15.40;72.70;;;;;;4159182;28;20060;-53
2023/11/30 13:50:28;;;;;;;5.40;4.70;;;15.50;72.00;;;;;;4181904;28;20501;-53
2023/11/30 13:53:12;;;;;;;7.88;5.20;;;15.70;71.80;;;;;;4170870;28;20068;-52
2023/11/30 13:55:54;;;;;;;5.10;4.63;;;15.80;70.70;;;;;;4157758;28;20056;-52
2023/11/30 13:58:36;;;;;;;5.93;5.20;;;15.90;70.30;;;;;;4182014;28;20146;-50
2023/11/30 14:01:17;;;;;;;8.60;5.68;;;16.00;69.90;;;;;;4159240;28;20384;-51
2023/11/30 14:03:59;;;;;;;5.82;5.25;;;16.10;69.80;;;;;;4178891;28;20449;-51